createdAt,value
2018-08-23T00:01:37.796Z,34.43
2018-08-23T00:04:11.959Z,32.90
2018-08-23T00:06:50.143Z,32.58
2018-08-23T00:09:20.299Z,32.83
2018-08-23T00:11:50.454Z,32.70
2018-08-23T00:14:21.765Z,35.28
2018-08-23T00:16:51.993Z,35.23
2018-08-23T00:19:22.197Z,31.75
2018-08-23T00:21:52.410Z,29.15
2018-08-23T00:24:23.671Z,35.45
2018-08-23T00:26:57.249Z,34.60
2018-08-23T00:29:32.497Z,36.60
2018-08-23T00:32:04.199Z,30.25
2018-08-23T00:34:36.480Z,32.10
2018-08-23T00:37:07.228Z,31.12
2018-08-23T00:39:37.387Z,32.27
2018-08-23T00:42:09.182Z,30.95
2018-08-23T00:45:01.979Z,32.00
2018-08-23T00:47:34.082Z,33.40
2018-08-23T00:50:04.244Z,32.10
2018-08-23T00:52:48.500Z,32.67
2018-08-23T00:58:06.060Z,35.17
2018-08-23T01:00:36.258Z,32.05
2018-08-23T01:03:06.447Z,33.65
2018-08-23T01:05:37.536Z,33.92
2018-08-23T01:08:08.977Z,36.42
2018-08-23T01:10:41.242Z,33.02
2018-08-23T01:13:11.458Z,36.28
2018-08-23T01:15:44.218Z,36.55
2018-08-23T01:18:17.797Z,35.65
2018-08-23T01:20:49.272Z,36.97
2018-08-23T01:23:19.392Z,37.25
2018-08-23T01:25:50.223Z,34.78
2018-08-23T01:28:20.304Z,37.88
2018-08-23T01:30:50.981Z,36.30
2018-08-23T01:33:22.642Z,32.88
2018-08-23T01:35:53.097Z,34.63
2018-08-23T01:38:23.303Z,34.55
2018-08-23T01:40:59.689Z,33.88
2018-08-23T01:43:29.921Z,33.65
2018-08-23T01:46:00.077Z,32.67
2018-08-23T01:48:30.419Z,35.40
2018-08-23T01:51:00.541Z,36.83
2018-08-23T01:53:35.791Z,41.20
2018-08-23T01:56:06.319Z,42.78
2018-08-23T01:58:36.558Z,44.05
2018-08-23T02:01:17.099Z,42.60
2018-08-23T02:03:47.369Z,38.95
2018-08-23T02:06:17.621Z,41.23
2018-08-23T02:08:48.221Z,38.23
2018-08-23T02:11:18.308Z,40.95
2018-08-23T02:13:50.543Z,40.90
2018-08-23T02:16:20.668Z,42.08
2018-08-23T02:18:51.063Z,39.23
2018-08-23T02:21:21.202Z,41.28
2018-08-23T02:23:54.057Z,41.30
2018-08-23T02:26:24.203Z,42.38
2018-08-23T02:28:54.439Z,38.78
2018-08-23T02:31:24.560Z,41.37
2018-08-23T02:33:54.698Z,39.05
2018-08-23T02:36:25.398Z,39.55
2018-08-23T02:38:59.298Z,38.80
2018-08-23T02:41:29.604Z,41.47
2018-08-23T02:43:59.857Z,48.55
2018-08-23T02:46:32.018Z,43.17
2018-08-23T02:49:02.244Z,42.53
2018-08-23T02:51:43.022Z,41.60
2018-08-23T02:54:14.434Z,41.87
2018-08-23T02:56:49.824Z,40.60
2018-08-23T02:59:19.910Z,43.17
2018-08-23T03:01:50.791Z,38.90
2018-08-23T03:04:25.831Z,39.45
2018-08-23T03:06:58.202Z,40.10
2018-08-23T03:09:31.371Z,38.70
2018-08-23T03:12:17.023Z,42.33
2018-08-23T03:14:47.597Z,44.13
2018-08-23T03:17:22.174Z,45.28
2018-08-23T03:21:07.843Z,49.67
2018-08-23T03:23:38.002Z,42.67
2018-08-23T03:26:08.123Z,44.07
2018-08-23T03:28:38.238Z,45.33
2018-08-23T03:31:13.062Z,43.53
2018-08-23T03:33:43.228Z,41.93
2018-08-23T03:36:13.441Z,38.53
2018-08-23T03:38:43.589Z,43.90
2018-08-23T03:41:13.698Z,43.30
2018-08-23T03:43:43.856Z,43.13
2018-08-23T03:46:13.979Z,40.83
2018-08-23T03:48:45.639Z,43.87
2018-08-23T03:51:15.773Z,57.70
2018-08-23T03:53:50.902Z,46.63
2018-08-23T03:56:21.059Z,46.77
2018-08-23T03:58:51.303Z,42.27
2018-08-23T04:01:21.456Z,43.73
2018-08-23T04:03:51.727Z,39.60
2018-08-23T04:06:33.257Z,37.93
2018-08-23T04:09:03.441Z,28.07
2018-08-23T04:11:33.619Z,28.50
2018-08-23T04:14:03.792Z,29.63
2018-08-23T04:16:34.850Z,32.53
2018-08-23T04:19:05.072Z,39.90
2018-08-23T04:21:35.264Z,35.93
2018-08-23T04:24:05.558Z,42.07
2018-08-23T04:26:35.702Z,42.97
2018-08-23T04:29:05.983Z,52.80
2018-08-23T04:31:36.175Z,43.90
2018-08-23T04:34:07.879Z,41.03
2018-08-23T04:36:40.863Z,37.47
2018-08-23T04:39:12.502Z,38.80
2018-08-23T04:41:43.338Z,40.07
2018-08-23T04:44:16.493Z,37.33
2018-08-23T04:46:46.679Z,44.50
2018-08-23T04:49:16.882Z,45.17
2018-08-23T04:51:47.008Z,42.27
2018-08-23T04:54:17.115Z,42.40
2018-08-23T04:56:47.224Z,41.60
2018-08-23T04:59:17.322Z,39.30
2018-08-23T05:01:47.485Z,42.07
2018-08-23T05:04:17.537Z,40.53
2018-08-23T05:06:47.752Z,43.00
2018-08-23T05:09:17.897Z,42.00
2018-08-23T05:11:48.098Z,38.43
2018-08-23T05:14:18.245Z,40.27
2018-08-23T05:16:48.440Z,41.63
2018-08-23T05:19:18.538Z,43.20
2018-08-23T05:21:48.684Z,45.23
2018-08-23T05:24:18.963Z,41.43
2018-08-23T05:26:49.104Z,46.67
2018-08-23T05:29:19.283Z,40.67
2018-08-23T05:31:49.337Z,40.20
2018-08-23T05:34:19.562Z,40.63
2018-08-23T05:36:49.710Z,42.47
2018-08-23T05:39:22.146Z,45.03
2018-08-23T05:41:53.261Z,50.30
2018-08-23T05:44:23.423Z,39.53
2018-08-23T05:46:57.502Z,42.30
2018-08-23T05:49:28.275Z,40.00
2018-08-23T05:51:59.964Z,39.93
2018-08-23T05:54:30.069Z,41.15
2018-08-23T05:57:00.265Z,45.37
2018-08-23T05:59:30.348Z,42.37
2018-08-23T06:02:00.482Z,44.10
2018-08-23T06:04:42.651Z,44.20
2018-08-23T06:07:12.782Z,42.53
2018-08-23T06:09:43.665Z,45.13
2018-08-23T06:12:13.778Z,43.47
2018-08-23T06:14:43.985Z,42.33
2018-08-23T06:17:14.085Z,40.07
2018-08-23T06:19:44.236Z,46.13
2018-08-23T06:22:14.442Z,42.33
2018-08-23T06:24:44.635Z,46.93
2018-08-23T06:27:14.865Z,44.57
2018-08-23T06:29:45.073Z,46.50
2018-08-23T06:32:16.446Z,44.17
2018-08-23T06:34:50.894Z,45.33
2018-08-23T06:37:22.604Z,45.80
2018-08-23T06:39:52.786Z,51.47
2018-08-23T06:42:37.435Z,41.48
2018-08-23T06:45:07.883Z,47.07
2018-08-23T06:47:42.712Z,45.50
2018-08-23T06:50:12.989Z,44.23
2018-08-23T06:52:48.416Z,46.48
2018-08-23T06:55:36.359Z,43.17
2018-08-23T06:58:06.733Z,50.90
2018-08-23T07:00:37.008Z,50.50
2018-08-23T07:03:07.285Z,48.02
2018-08-23T07:05:37.592Z,50.38
2018-08-23T07:08:08.284Z,48.52
2018-08-23T07:10:38.596Z,50.80
2018-08-23T07:13:09.025Z,53.33
2018-08-23T07:15:41.462Z,56.75
2018-08-23T07:18:16.252Z,56.70
2018-08-23T07:20:46.462Z,55.55
2018-08-23T07:23:31.084Z,50.33
2018-08-23T07:26:01.295Z,56.18
2018-08-23T07:28:32.015Z,46.88
2018-08-23T07:31:02.200Z,50.25
2018-08-23T07:33:34.875Z,50.12
2018-08-23T07:36:21.633Z,52.88
2018-08-23T07:38:51.854Z,46.15
2018-08-23T07:41:22.258Z,47.48
2018-08-23T07:43:52.492Z,40.52
2018-08-23T07:46:22.842Z,37.73
2018-08-23T07:48:52.942Z,40.10
2018-08-23T07:51:25.063Z,35.08
2018-08-23T07:53:58.667Z,27.15
2018-08-23T07:56:29.387Z,26.75
2018-08-23T07:58:59.506Z,24.80
2018-08-23T08:01:32.935Z,25.62
2018-08-23T08:04:03.258Z,24.90
2018-08-23T08:06:33.695Z,26.12
2018-08-23T08:09:04.661Z,27.77
2018-08-23T08:12:01.820Z,29.85
2018-08-23T08:14:38.004Z,31.90
2018-08-23T08:17:18.833Z,30.17
2018-08-23T08:19:56.799Z,27.25
2018-08-23T08:22:27.277Z,28.45
2018-08-23T08:25:16.745Z,25.48
2018-08-23T08:27:47.339Z,22.02
2018-08-23T08:30:21.536Z,20.52
2018-08-23T08:32:51.682Z,22.15
2018-08-23T08:35:21.891Z,23.55
2018-08-23T08:37:52.238Z,22.45
2018-08-23T08:40:23.849Z,22.65
2018-08-23T08:42:54.080Z,23.27
2018-08-23T08:45:27.979Z,22.15
2018-08-23T08:48:32.022Z,19.70
2018-08-23T08:51:21.692Z,20.43
2018-08-23T08:53:52.435Z,20.02
2018-08-23T08:56:33.121Z,19.60
2018-08-23T08:59:04.196Z,19.82
2018-08-23T09:01:34.458Z,17.95
2018-08-23T09:04:04.983Z,19.52
2018-08-23T09:06:50.736Z,17.52
2018-08-23T09:09:33.205Z,18.40
2018-08-23T09:12:07.939Z,19.87
2018-08-23T09:14:39.085Z,15.23
2018-08-23T09:17:30.594Z,19.60
2018-08-23T09:20:08.400Z,16.05
2018-08-23T09:22:53.793Z,16.30
2018-08-23T09:25:28.963Z,20.48
2018-08-23T09:27:59.161Z,17.67
2018-08-23T09:30:31.762Z,19.77
2018-08-23T09:33:06.887Z,22.15
2018-08-23T09:35:37.322Z,25.25
2018-08-23T09:38:13.668Z,23.57
2018-08-23T09:40:43.924Z,22.65
2018-08-23T09:43:14.199Z,21.97
2018-08-23T09:45:44.399Z,22.58
2018-08-23T09:48:14.719Z,21.40
2018-08-23T09:50:44.883Z,22.20
2018-08-23T09:53:19.923Z,22.62
2018-08-23T09:55:51.619Z,20.52
2018-08-23T09:58:27.944Z,20.10
2018-08-23T10:01:03.028Z,24.63
2018-08-23T10:03:38.135Z,19.55
2018-08-23T10:06:13.489Z,18.48
2018-08-23T10:08:48.808Z,19.27
2018-08-23T10:11:24.086Z,23.27
2018-08-23T10:13:59.337Z,20.48
2018-08-23T10:16:34.669Z,19.73
2018-08-23T10:19:09.837Z,22.25
2018-08-23T10:21:44.936Z,18.37
2018-08-23T10:24:20.309Z,19.95
2018-08-23T10:26:50.429Z,19.35
2018-08-23T10:29:20.544Z,23.52
2018-08-23T10:31:50.714Z,24.18
2018-08-23T10:34:20.873Z,26.27
2018-08-23T10:36:51.003Z,32.95
2018-08-23T10:39:21.157Z,19.25
2018-08-23T10:41:51.338Z,21.87
2018-08-23T10:44:21.641Z,19.02
2018-08-23T10:46:57.584Z,21.48
2018-08-23T10:49:27.901Z,18.73
2018-08-23T10:51:58.053Z,18.32
2018-08-23T10:54:28.234Z,18.80
2018-08-23T10:56:58.404Z,20.10
2018-08-23T10:59:28.628Z,21.40
2018-08-23T11:01:58.734Z,20.85
2018-08-23T11:04:29.048Z,16.87
2018-08-23T11:06:59.477Z,22.95
2018-08-23T11:09:34.730Z,20.93
2018-08-23T11:12:04.961Z,17.48
2018-08-23T11:14:41.063Z,20.32
2018-08-23T11:17:16.281Z,19.52
2018-08-23T11:19:51.446Z,18.37
2018-08-23T11:22:25.645Z,16.00
2018-08-23T11:24:55.824Z,15.75
2018-08-23T11:27:26.068Z,16.90
2018-08-23T11:29:56.500Z,16.60
2018-08-23T11:32:26.630Z,17.07
2018-08-23T11:34:56.864Z,17.87
2018-08-23T11:37:26.999Z,16.20
2018-08-23T11:39:57.349Z,16.32
2018-08-23T11:42:27.515Z,16.27
2018-08-23T11:44:57.802Z,28.45
2018-08-23T11:47:27.944Z,18.15
2018-08-23T11:49:58.162Z,16.77
2018-08-23T11:52:28.291Z,15.00
2018-08-23T11:54:58.560Z,14.18
2018-08-23T11:57:28.858Z,13.88
2018-08-23T11:59:59.085Z,16.67
2018-08-23T12:02:29.362Z,13.53
2018-08-23T12:04:59.678Z,13.10
2018-08-23T12:07:30.099Z,16.02
2018-08-23T12:10:00.394Z,11.65
2018-08-23T12:12:30.501Z,14.95
2018-08-23T12:15:03.260Z,12.65
2018-08-23T12:17:33.424Z,13.45
2018-08-23T12:20:03.655Z,12.90
2018-08-23T12:22:38.905Z,14.33
2018-08-23T12:25:09.075Z,13.50
2018-08-23T12:27:40.060Z,13.43
2018-08-23T12:30:10.399Z,11.27
2018-08-23T12:32:40.625Z,10.82
2018-08-23T12:35:10.838Z,11.38
2018-08-23T12:37:46.095Z,10.28
2018-08-23T12:40:21.339Z,9.85
2018-08-23T12:42:52.911Z,13.05
2018-08-23T12:45:23.084Z,15.48
2018-08-23T12:47:53.284Z,16.70
2018-08-23T12:50:23.447Z,12.60
2018-08-23T12:52:53.837Z,16.52
2018-08-23T12:55:24.108Z,13.03
2018-08-23T12:57:54.334Z,12.78
2018-08-23T13:00:24.525Z,10.25
2018-08-23T13:02:54.854Z,9.78
2018-08-23T13:05:25.089Z,10.95
2018-08-23T13:07:55.255Z,12.15
2018-08-23T13:10:25.465Z,12.10
2018-08-23T13:12:55.661Z,13.75
2018-08-23T13:15:25.797Z,13.62
2018-08-23T13:17:55.973Z,16.75
2018-08-23T13:20:26.204Z,15.60
2018-08-23T13:22:56.432Z,19.45
2018-08-23T13:25:29.302Z,19.17
2018-08-23T13:27:59.511Z,19.07
2018-08-23T13:30:29.761Z,21.12
2018-08-23T13:33:00.048Z,22.67
2018-08-23T13:35:30.356Z,17.92
2018-08-23T13:38:00.543Z,17.70
2018-08-23T13:40:30.784Z,15.80
2018-08-23T13:43:01.024Z,18.23
2018-08-23T13:45:31.263Z,19.82
2018-08-23T13:48:01.480Z,17.00
2018-08-23T13:50:31.643Z,13.03
2018-08-23T13:53:01.860Z,11.90
2018-08-23T13:55:32.010Z,14.73
2018-08-23T13:58:02.152Z,14.40
2018-08-23T14:00:37.256Z,11.68
2018-08-23T14:03:08.322Z,17.07
2018-08-23T14:05:39.649Z,12.65
2018-08-23T14:08:10.377Z,11.00
2018-08-23T14:10:40.617Z,11.65
2018-08-23T14:13:10.842Z,12.82
2018-08-23T14:15:46.115Z,12.58
2018-08-23T14:18:16.327Z,14.93
2018-08-23T14:20:46.536Z,15.90
2018-08-23T14:23:16.777Z,11.33
2018-08-23T14:25:46.870Z,11.07
2018-08-23T14:28:17.022Z,9.98
2018-08-23T14:30:47.227Z,11.00
2018-08-23T14:33:17.403Z,11.20
2018-08-23T14:35:47.605Z,11.43
2018-08-23T14:38:17.830Z,9.28
2018-08-23T14:40:48.152Z,13.08
2018-08-23T14:43:18.345Z,10.13
2018-08-23T14:45:48.562Z,9.80
2018-08-23T14:48:20.128Z,9.45
2018-08-23T14:50:54.346Z,9.55
2018-08-23T14:53:26.449Z,11.50
2018-08-23T14:56:01.636Z,8.15
2018-08-23T14:58:32.127Z,13.08
2018-08-23T15:01:02.429Z,15.88
2018-08-23T15:03:32.623Z,8.83
2018-08-23T15:06:02.952Z,8.37
2018-08-23T15:08:33.165Z,10.10
2018-08-23T15:11:03.380Z,11.85
2018-08-23T15:13:33.514Z,8.33
2018-08-23T15:16:03.779Z,8.20
2018-08-23T15:18:33.986Z,42.40
2018-08-23T15:21:04.146Z,11.05
2018-08-23T15:23:34.371Z,9.58
2018-08-23T15:26:04.588Z,9.60
2018-08-23T15:28:34.722Z,7.33
2018-08-23T15:31:04.868Z,7.65
2018-08-23T15:33:35.062Z,7.95
2018-08-23T15:36:05.222Z,8.68
2018-08-23T15:38:35.468Z,7.30
2018-08-23T15:41:05.843Z,6.08
2018-08-23T15:43:35.956Z,5.10
2018-08-23T15:46:06.241Z,6.40
2018-08-23T15:48:36.581Z,4.80
2018-08-23T15:51:06.917Z,5.97
2018-08-23T15:53:41.894Z,4.53
2018-08-23T15:56:12.233Z,5.62
2018-08-23T15:58:42.478Z,8.48
2018-08-23T16:01:12.679Z,5.55
2018-08-23T16:03:43.014Z,8.10
2018-08-23T16:06:13.304Z,9.53
2018-08-23T16:08:48.578Z,7.72
2018-08-23T16:11:19.162Z,8.63
2018-08-23T16:13:49.450Z,10.68
2018-08-23T16:16:24.713Z,9.30
2018-08-23T16:18:59.978Z,9.78
2018-08-23T16:21:35.151Z,8.88
2018-08-23T16:24:05.484Z,9.53
2018-08-23T16:26:40.852Z,9.40
2018-08-23T16:29:11.171Z,9.60
2018-08-23T16:31:41.389Z,11.28
2018-08-23T16:34:11.681Z,10.45
2018-08-23T16:36:42.036Z,11.65
2018-08-23T16:39:12.198Z,9.95
2018-08-23T16:41:42.389Z,10.65
2018-08-23T16:44:12.703Z,28.50
2018-08-23T16:46:42.959Z,13.95
2018-08-23T16:49:13.165Z,9.43
2018-08-23T16:51:43.425Z,11.10
2018-08-23T16:54:13.662Z,10.50
2018-08-23T16:56:43.891Z,9.88
2018-08-23T16:59:14.235Z,8.30
2018-08-23T17:01:44.401Z,11.28
2018-08-23T17:04:14.665Z,20.10
2018-08-23T17:06:46.104Z,11.30
2018-08-23T17:09:26.733Z,8.60
2018-08-23T17:11:57.197Z,9.00
2018-08-23T17:14:27.408Z,11.53
2018-08-23T17:17:02.677Z,12.05
2018-08-23T17:19:32.966Z,12.07
2018-08-23T17:22:03.258Z,11.18
2018-08-23T17:24:33.635Z,10.27
2018-08-23T17:27:03.878Z,11.20
2018-08-23T17:29:34.059Z,12.87
2018-08-23T17:32:04.276Z,13.40
2018-08-23T17:34:34.404Z,13.13
2018-08-23T17:37:04.579Z,12.40
2018-08-23T17:39:34.790Z,14.30
2018-08-23T17:42:05.068Z,14.73
2018-08-23T17:44:37.399Z,12.73
2018-08-23T17:47:07.792Z,12.25
2018-08-23T17:49:37.995Z,11.90
2018-08-23T17:52:08.324Z,13.35
2018-08-23T17:54:38.508Z,12.28
2018-08-23T17:57:08.790Z,11.65
2018-08-23T17:59:39.002Z,11.18
2018-08-23T18:02:09.525Z,13.55
2018-08-23T18:04:39.704Z,15.03
2018-08-23T18:07:09.855Z,15.05
2018-08-23T18:09:40.061Z,12.68
2018-08-23T18:12:10.560Z,15.90
2018-08-23T18:14:40.703Z,12.88
2018-08-23T18:17:10.878Z,13.78
2018-08-23T18:19:41.121Z,10.65
2018-08-23T18:22:11.395Z,13.08
2018-08-23T18:24:41.854Z,11.55
2018-08-23T18:27:12.009Z,11.68
2018-08-23T18:29:42.325Z,11.30
2018-08-23T18:32:12.483Z,10.85
2018-08-23T18:34:42.759Z,10.98
2018-08-23T18:37:13.063Z,9.73
2018-08-23T18:39:43.275Z,12.07
2018-08-23T18:42:13.498Z,12.35
2018-08-23T18:44:43.705Z,10.35
2018-08-23T18:47:14.168Z,11.08
2018-08-23T18:49:44.458Z,10.60
2018-08-23T18:52:14.658Z,10.48
2018-08-23T18:54:44.863Z,9.28
2018-08-23T18:57:15.025Z,8.95
2018-08-23T18:59:45.233Z,10.95
2018-08-23T19:02:15.385Z,8.73
2018-08-23T19:04:45.787Z,8.58
2018-08-23T19:07:21.159Z,7.03
2018-08-23T19:09:55.503Z,14.18
2018-08-23T19:12:25.657Z,8.98
2018-08-23T19:14:56.122Z,9.03
2018-08-23T19:17:44.545Z,7.55
2018-08-23T19:20:14.622Z,8.38
2018-08-23T19:22:44.831Z,9.05
2018-08-23T19:25:15.135Z,7.62
2018-08-23T19:27:45.351Z,14.58
2018-08-23T19:30:15.584Z,6.45
2018-08-23T19:32:45.747Z,9.15
2018-08-23T19:35:15.840Z,8.30
2018-08-23T19:37:46.093Z,8.18
2018-08-23T19:40:16.216Z,7.37
2018-08-23T19:42:46.425Z,7.75
2018-08-23T19:45:16.587Z,7.65
2018-08-23T19:47:51.878Z,7.10
2018-08-23T19:50:22.191Z,9.18
2018-08-23T19:52:52.339Z,8.28
2018-08-23T19:55:22.599Z,6.87
2018-08-23T19:57:52.707Z,8.58
2018-08-23T20:00:22.873Z,7.70
2018-08-23T20:02:53.062Z,8.48
2018-08-23T20:05:23.268Z,7.47
2018-08-23T20:07:53.417Z,8.53
2018-08-23T20:10:23.659Z,8.98
2018-08-23T20:12:53.783Z,9.18
2018-08-23T20:15:24.961Z,7.80
2018-08-23T20:17:56.753Z,8.13
2018-08-23T20:20:26.943Z,10.00
2018-08-23T20:22:57.186Z,9.83
2018-08-23T20:25:27.424Z,7.62
2018-08-23T20:27:57.580Z,9.23
2018-08-23T20:30:28.350Z,7.80
2018-08-23T20:32:59.459Z,9.73
2018-08-23T20:35:29.783Z,11.38
2018-08-23T20:37:59.960Z,8.18
2018-08-23T20:40:30.100Z,13.60
2018-08-23T20:43:00.448Z,12.47
2018-08-23T20:45:30.675Z,7.45
2018-08-23T20:48:00.884Z,11.18
2018-08-23T20:50:31.045Z,7.47
2018-08-23T20:53:01.501Z,6.90
2018-08-23T20:55:31.644Z,7.10
2018-08-23T20:58:02.219Z,6.17
2018-08-23T21:00:32.388Z,7.53
2018-08-23T21:03:02.904Z,9.80
2018-08-23T21:05:33.067Z,7.92
2018-08-23T21:08:03.509Z,8.13
2018-08-23T21:10:33.710Z,6.30
2018-08-23T21:13:03.859Z,6.30
2018-08-23T21:15:37.624Z,8.15
2018-08-23T21:18:10.890Z,8.20
2018-08-23T21:20:42.673Z,8.88
2018-08-23T21:23:12.818Z,7.35
2018-08-23T21:25:42.981Z,6.22
2018-08-23T21:28:13.124Z,7.75
2018-08-23T21:30:43.288Z,9.98
2018-08-23T21:33:13.520Z,11.55
2018-08-23T21:35:43.673Z,8.13
2018-08-23T21:38:13.813Z,9.50
2018-08-23T21:40:44.018Z,7.53
2018-08-23T21:43:14.304Z,9.73
2018-08-23T21:45:44.565Z,5.83
2018-08-23T21:48:14.831Z,10.63
2018-08-23T21:50:45.028Z,7.35
2018-08-23T21:53:15.798Z,8.28
2018-08-23T21:55:45.880Z,9.73
2018-08-23T21:58:16.118Z,8.53
2018-08-23T22:00:51.308Z,8.28
2018-08-23T22:03:21.571Z,7.72
2018-08-23T22:05:51.831Z,10.53
2018-08-23T22:08:21.918Z,8.58
2018-08-23T22:10:52.071Z,10.30
2018-08-23T22:13:22.218Z,7.20
2018-08-23T22:15:52.478Z,6.70
2018-08-23T22:18:22.678Z,7.87
2018-08-23T22:20:53.372Z,5.37
2018-08-23T22:23:23.522Z,6.33
2018-08-23T22:25:53.617Z,6.60
2018-08-23T22:28:23.817Z,7.85
2018-08-23T22:30:53.983Z,5.03
2018-08-23T22:33:24.122Z,5.35
2018-08-23T22:35:54.294Z,7.87
2018-08-23T22:38:24.441Z,5.83
2018-08-23T22:40:54.677Z,6.53
2018-08-23T22:43:24.890Z,7.03
2018-08-23T22:45:55.061Z,6.37
2018-08-23T22:48:25.125Z,5.67
2018-08-23T22:50:55.298Z,6.33
2018-08-23T22:53:25.428Z,5.12
2018-08-23T22:55:55.655Z,6.00
2018-08-23T22:58:25.878Z,4.45
2018-08-23T23:00:55.983Z,4.20
2018-08-23T23:03:31.447Z,4.53
2018-08-23T23:06:01.642Z,4.25
2018-08-23T23:08:31.859Z,6.58
2018-08-23T23:11:02.017Z,5.05
2018-08-23T23:13:32.182Z,3.85
2018-08-23T23:16:02.419Z,6.30
2018-08-23T23:18:32.523Z,4.55
2018-08-23T23:21:02.767Z,5.60
2018-08-23T23:23:32.947Z,5.40
2018-08-23T23:26:03.184Z,4.42
2018-08-23T23:28:33.283Z,5.20
2018-08-23T23:31:03.484Z,6.23
2018-08-23T23:33:33.597Z,3.08
2018-08-23T23:36:03.783Z,4.65
2018-08-23T23:38:33.976Z,2.85
2018-08-23T23:41:04.157Z,2.77
2018-08-23T23:43:34.329Z,2.35
2018-08-23T23:46:04.560Z,3.87
2018-08-23T23:48:34.883Z,1.70
2018-08-23T23:51:05.721Z,2.33
2018-08-23T23:53:36.034Z,1.72
2018-08-23T23:56:06.281Z,2.08
2018-08-23T23:58:36.438Z,2.22
